Time;durP1;ratioP1;P1;durP2;ratioP2;P2;SDS_P1;SDS_P2;PMS_P1;PMS_P2;Temp;Humidity;BMP_temperature;BMP_pressure;BME280_temperature;BME280_humidity;BME280_pressure;Samples;Min_cycle;Max_cycle;Signal;HPM_P1;HPM_P2
2023/12/01 00:04:14;;;;;;;15.32;13.48;;;;;;;4.98;77.97;98666.06;10233352;28;20159;-64
2023/12/01 00:09:16;;;;;;;16.02;12.55;;;;;;;5.05;77.58;98661.13;10256505;28;20050;-63
2023/12/01 00:14:18;;;;;;;12.63;11.32;;;;;;;4.86;77.25;98690.81;10245839;28;20097;-64
2023/12/01 00:19:19;;;;;;;14.63;12.35;;;;;;;4.85;77.59;98687.34;10229388;28;20193;-65
2023/12/01 00:24:21;;;;;;;13.95;12.25;;;;;;;4.91;77.72;98663.09;10198266;28;20047;-65
2023/12/01 00:29:22;;;;;;;16.13;13.57;;;;;;;4.99;77.40;98670.38;10246324;28;20054;-64
2023/12/01 00:34:24;;;;;;;17.02;13.95;;;;;;;4.95;77.31;98651.34;10234885;28;20428;-64
2023/12/01 00:39:26;;;;;;;17.08;13.05;;;;;;;4.85;76.24;98687.34;10234035;28;20050;-65
2023/12/01 00:44:27;;;;;;;17.13;13.70;;;;;;;4.63;78.12;98687.41;10232596;28;20122;-64
2023/12/01 00:49:31;;;;;;;14.43;12.57;;;;;;;4.82;77.43;98687.59;10227095;28;20063;-62
2023/12/01 00:54:33;;;;;;;15.07;12.15;;;;;;;4.84;76.50;98675.09;10247777;28;20670;-64
2023/12/01 00:59:35;;;;;;;15.50;12.43;;;;;;;4.86;77.02;98694.25;10239632;28;20057;-64
2023/12/01 01:04:37;;;;;;;14.02;12.20;;;;;;;4.55;76.82;98675.69;10228101;28;20066;-65
2023/12/01 01:09:38;;;;;;;11.95;10.20;;;;;;;4.75;77.23;98683.78;10247414;28;20093;-63
2023/12/01 01:14:40;;;;;;;13.05;11.20;;;;;;;4.65;77.21;98677.56;10243836;28;20693;-65
2023/12/01 01:19:41;;;;;;;13.30;10.93;;;;;;;4.62;76.12;98676.00;10229817;28;21525;-64
2023/12/01 01:24:45;;;;;;;12.95;10.88;;;;;;;4.55;77.00;98680.97;10252940;28;20444;-64
2023/12/01 01:29:47;;;;;;;12.37;9.80;;;;;;;4.51;76.60;98674.25;10247520;28;20170;-63
2023/12/01 01:34:50;;;;;;;10.73;9.63;;;;;;;4.37;76.53;98662.19;10240737;28;20063;-65
2023/12/01 01:39:51;;;;;;;11.27;9.23;;;;;;;4.35;76.47;98679.06;10249441;28;20519;-64
2023/12/01 01:44:53;;;;;;;9.77;8.77;;;;;;;3.97;78.13;98691.69;10249693;28;20739;-65
2023/12/01 01:49:56;;;;;;;9.27;8.25;;;;;;;3.99;78.03;98673.94;10232468;28;20108;-64
2023/12/01 01:54:57;;;;;;;8.75;7.78;;;;;;;4.24;77.42;98698.38;10250115;28;20139;-65
2023/12/01 01:59:59;;;;;;;8.93;7.45;;;;;;;4.19;76.77;98692.66;10230314;28;20733;-61
2023/12/01 02:05:01;;;;;;;9.07;7.78;;;;;;;3.87;77.79;98686.31;10251533;28;20062;-63
2023/12/01 02:10:03;;;;;;;9.13;7.97;;;;;;;4.07;77.38;98670.75;10251053;28;20141;-63
2023/12/01 02:15:10;;;;;;;8.93;7.50;;;;;;;3.87;77.48;98699.47;10244618;28;20133;-64
2023/12/01 02:20:14;;;;;;;8.50;7.20;;;;;;;3.72;78.78;98705.91;10238504;28;20049;-63
2023/12/01 02:25:17;;;;;;;9.20;6.95;;;;;;;3.97;78.16;98706.66;10253616;28;20309;-63
2023/12/01 02:30:19;;;;;;;8.25;7.05;;;;;;;3.87;78.06;98711.78;10234950;28;20054;-64
2023/12/01 02:35:20;;;;;;;7.32;6.53;;;;;;;3.98;76.68;98708.31;10245765;28;20058;-62
2023/12/01 02:40:23;;;;;;;7.28;6.25;;;;;;;3.92;77.17;98737.75;10245308;28;20149;-64
2023/12/01 02:45:24;;;;;;;7.38;6.65;;;;;;;4.11;76.50;98730.09;10250052;28;20062;-64
2023/12/01 02:50:26;;;;;;;6.60;5.88;;;;;;;4.27;75.50;98723.66;10250180;28;20051;-63
2023/12/01 02:55:27;;;;;;;6.40;5.80;;;;;;;4.25;75.25;98727.22;10252457;28;20722;-63
2023/12/01 03:00:29;;;;;;;6.28;5.68;;;;;;;4.17;74.71;98723.50;10250063;28;20058;-65
2023/12/01 03:05:31;;;;;;;5.90;5.40;;;;;;;4.14;74.59;98732.47;10237117;28;20062;-64
2023/12/01 03:10:35;;;;;;;6.47;5.32;;;;;;;4.05;75.79;98727.94;10229925;28;20067;-64
2023/12/01 03:15:36;;;;;;;5.75;5.22;;;;;;;4.25;75.08;98711.44;10221514;28;20194;-63
2023/12/01 03:20:38;;;;;;;5.07;4.57;;;;;;;4.32;75.00;98710.94;10247280;28;20569;-64
2023/12/01 03:25:39;;;;;;;5.38;4.78;;;;;;;4.33;74.71;98725.78;10248173;28;20759;-65
2023/12/01 03:30:41;;;;;;;5.57;4.97;;;;;;;4.38;74.12;98726.25;10238808;28;20047;-64
2023/12/01 03:35:42;;;;;;;5.57;4.88;;;;;;;4.45;74.37;98727.44;10242481;28;20054;-65
2023/12/01 03:40:45;;;;;;;5.90;4.57;;;;;;;4.41;74.02;98726.00;10244603;28;20047;-64
2023/12/01 03:45:46;;;;;;;4.38;3.97;;;;;;;4.48;73.50;98710.56;10241894;28;20063;-63
2023/12/01 03:50:50;;;;;;;5.00;4.38;;;;;;;4.46;72.98;98705.41;10246645;28;20045;-64
2023/12/01 03:55:52;;;;;;;5.10;4.60;;;;;;;4.48;73.03;98715.84;10239569;28;20054;-64
2023/12/01 04:00:53;;;;;;;4.43;3.75;;;;;;;4.46;72.42;98708.06;10241857;28;20051;-64
2023/12/01 04:05:55;;;;;;;4.55;4.10;;;;;;;4.50;72.78;98727.91;10246118;28;20074;-64
2023/12/01 04:10:56;;;;;;;5.32;4.25;;;;;;;4.52;72.61;98728.63;10235014;28;20057;-64
2023/12/01 04:15:58;;;;;;;5.95;5.15;;;;;;;4.50;72.20;98727.91;10244719;28;20053;-64
2023/12/01 04:21:00;;;;;;;6.35;5.75;;;;;;;4.23;73.72;98749.38;10210320;28;20125;-64
2023/12/01 04:26:02;;;;;;;8.15;6.60;;;;;;;4.33;73.29;98752.13;10239416;28;20050;-63
2023/12/01 04:31:05;;;;;;;8.18;7.35;;;;;;;4.30;73.71;98752.38;10247715;28;20874;-64
2023/12/01 04:36:17;;;;;;;8.55;7.60;;;;;;;4.37;73.96;98735.97;10239381;28;20077;-64
2023/12/01 04:41:18;;;;;;;9.95;8.85;;;;;;;4.37;73.95;98740.41;10251594;28;20135;-65
2023/12/01 04:46:19;;;;;;;10.38;9.35;;;;;;;4.42;73.92;98728.53;10253108;28;20067;-64
2023/12/01 04:51:21;;;;;;;10.32;9.13;;;;;;;4.39;73.20;98735.84;10224740;28;20394;-65
2023/12/01 04:56:22;;;;;;;9.93;8.88;;;;;;;4.18;73.45;98743.63;10255832;28;20537;-63
2023/12/01 05:01:26;;;;;;;10.40;8.77;;;;;;;4.25;73.62;98736.94;10256062;28;20047;-64
2023/12/01 05:06:27;;;;;;;10.20;8.98;;;;;;;4.20;73.38;98744.34;10253671;28;20503;-63
2023/12/01 05:11:28;;;;;;;10.38;9.15;;;;;;;4.27;73.60;98757.88;10242834;28;20063;-63
2023/12/01 05:16:30;;;;;;;10.68;9.48;;;;;;;4.22;72.83;98752.97;10254763;28;20062;-64
2023/12/01 05:21:32;;;;;;;10.23;8.38;;;;;;;4.16;72.71;98758.69;10249504;28;20065;-63
2023/12/01 05:26:34;;;;;;;8.73;7.78;;;;;;;4.20;73.13;98765.41;10219609;28;20050;-65
2023/12/01 05:31:36;;;;;;;9.40;8.32;;;;;;;4.11;72.56;98766.13;10254362;28;20533;-63
2023/12/01 05:36:39;;;;;;;9.13;8.23;;;;;;;4.06;73.23;98775.22;10245406;28;20453;-64
2023/12/01 05:41:41;;;;;;;9.95;8.60;;;;;;;4.10;73.02;98786.38;10222646;28;20047;-64
2023/12/01 05:46:42;;;;;;;8.20;7.35;;;;;;;4.07;73.61;98791.88;10250470;28;20194;-63
2023/12/01 05:51:44;;;;;;;14.75;12.25;;;;;;;4.14;72.85;98786.97;10250079;28;20051;-64
2023/12/01 05:56:46;;;;;;;9.23;8.27;;;;;;;4.24;71.72;98801.09;10238396;28;20089;-64
2023/12/01 06:01:49;;;;;;;9.77;8.35;;;;;;;4.36;72.07;98807.22;10249441;28;20051;-64
2023/12/01 06:06:50;;;;;;;7.95;6.60;;;;;;;4.22;72.40;98806.50;10218952;28;20831;-62
2023/12/01 06:11:52;;;;;;;8.85;7.95;;;;;;;4.18;71.51;98818.22;10232188;28;20148;-63
2023/12/01 06:16:55;;;;;;;8.80;7.90;;;;;;;4.23;72.43;98821.34;10237420;28;20059;-64
2023/12/01 06:21:58;;;;;;;8.40;7.60;;;;;;;4.30;72.00;98824.34;10242790;28;20453;-64
2023/12/01 06:27:04;;;;;;;7.93;7.10;;;;;;;4.34;71.67;98846.84;10235117;28;20089;-64
2023/12/01 06:32:05;;;;;;;8.57;7.30;;;;;;;4.30;71.49;98855.94;10219999;28;20059;-63
2023/12/01 06:37:07;;;;;;;9.73;8.60;;;;;;;4.22;71.90;98853.91;10244942;28;20066;-63
2023/12/01 06:42:09;;;;;;;9.48;8.43;;;;;;;4.21;72.04;98839.03;10240204;28;20178;-64
2023/12/01 06:47:11;;;;;;;9.32;8.00;;;;;;;4.25;72.38;98843.13;10240430;28;20055;-64
2023/12/01 06:52:17;;;;;;;8.43;7.10;;;;;;;4.26;71.94;98854.50;10227401;28;20057;-64
2023/12/01 06:57:19;;;;;;;8.10;7.30;;;;;;;4.18;71.13;98847.19;10244679;28;20055;-64
2023/12/01 07:02:20;;;;;;;8.63;7.38;;;;;;;3.73;73.62;98868.13;10248326;28;20127;-61
2023/12/01 07:07:23;;;;;;;9.75;8.00;;;;;;;3.81;73.69;98867.56;10229954;28;20222;-64
2023/12/01 07:12:25;;;;;;;10.40;8.63;;;;;;;3.81;73.97;98871.03;10215393;28;20443;-65
2023/12/01 07:17:26;;;;;;;11.07;9.30;;;;;;;3.92;73.01;98867.59;10234973;28;20532;-63
2023/12/01 07:22:34;;;;;;;10.60;9.05;;;;;;;3.81;73.40;98868.38;10370275;28;20401;-63
2023/12/01 07:27:40;;;;;;;12.50;9.40;;;;;;;3.48;74.84;98879.63;10399131;28;20056;-62
2023/12/01 07:32:45;;;;;;;12.20;10.07;;;;;;;3.54;75.11;98874.75;10394467;28;20056;-64
2023/12/01 07:37:51;;;;;;;13.65;11.02;;;;;;;3.95;76.01;98882.31;10393800;28;20091;-62
2023/12/01 07:42:56;;;;;;;13.00;10.10;;;;;;;4.13;73.38;98880.94;10382814;28;20082;-63
2023/12/01 07:48:01;;;;;;;11.23;9.32;;;;;;;3.93;74.13;98894.75;10387424;28;20116;-63
2023/12/01 07:53:04;;;;;;;12.95;10.38;;;;;;;4.04;73.21;98887.75;10398242;28;20199;-63
2023/12/01 07:58:06;;;;;;;12.07;10.75;;;;;;;4.00;73.79;98886.28;10402372;28;20083;-65
2023/12/01 08:03:08;;;;;;;11.13;9.93;;;;;;;4.10;72.98;98891.72;10380965;28;20071;-64
2023/12/01 08:08:09;;;;;;;11.95;10.02;;;;;;;4.01;72.42;98866.06;10388308;28;20048;-64
2023/12/01 08:13:12;;;;;;;11.93;10.65;;;;;;;4.14;72.94;98893.13;10396265;28;20510;-64
2023/12/01 08:18:15;;;;;;;13.27;10.70;;;;;;;4.07;73.04;98905.13;10371518;28;20048;-63
2023/12/01 08:23:17;;;;;;;13.05;10.18;;;;;;;4.12;72.33;98897.69;10397116;28;20056;-65
2023/12/01 08:28:19;;;;;;;12.45;10.50;;;;;;;4.13;72.38;98914.31;10394266;28;20085;-63
2023/12/01 08:33:21;;;;;;;11.68;10.43;;;;;;;4.14;72.16;98910.75;10365478;28;20085;-62
2023/12/01 08:38:23;;;;;;;10.60;9.18;;;;;;;4.23;72.37;98924.06;10371298;28;20555;-63
2023/12/01 08:43:25;;;;;;;11.07;9.88;;;;;;;4.25;71.56;98919.53;10364440;28;20132;-65
2023/12/01 08:48:31;;;;;;;12.57;9.20;;;;;;;4.10;71.68;98907.50;10405745;28;20076;-63
2023/12/01 08:53:33;;;;;;;10.52;9.05;;;;;;;4.09;71.98;98923.44;10407986;28;20049;-64
2023/12/01 08:58:35;;;;;;;10.65;9.55;;;;;;;4.10;71.93;98915.41;10421249;28;20052;-64
2023/12/01 09:03:39;;;;;;;9.73;8.65;;;;;;;4.13;71.02;98909.91;10418749;28;20065;-67
2023/12/01 09:08:41;;;;;;;10.10;9.10;;;;;;;4.08;71.21;98935.75;10404846;28;20073;-66
2023/12/01 09:13:42;;;;;;;9.80;8.38;;;;;;;4.16;71.97;98948.34;10410673;28;20053;-64
2023/12/01 09:18:46;;;;;;;9.48;8.30;;;;;;;4.05;71.92;98951.78;10418782;28;20053;-63
2023/12/01 09:23:50;;;;;;;9.80;8.48;;;;;;;4.10;70.79;98960.19;10393039;28;20052;-69
2023/12/01 09:28:53;;;;;;;9.38;6.72;;;;;;;4.16;70.78;98946.56;10421677;28;20156;-67
2023/12/01 09:33:55;;;;;;;7.70;7.00;;;;;;;4.20;70.71;98947.16;10390917;28;20060;-67
2023/12/01 09:38:57;;;;;;;8.23;7.03;;;;;;;4.18;71.11;98942.00;10405609;28;20144;-67
2023/12/01 09:43:59;;;;;;;8.18;7.30;;;;;;;4.29;69.95;98943.00;10406163;28;20728;-68
2023/12/01 09:49:13;;;;;;;9.10;7.20;;;;;;;4.27;70.05;98944.91;10424717;28;20061;-66
2023/12/01 09:54:15;;;;;;;7.05;6.28;;;;;;;4.18;69.65;98938.53;10410842;28;20064;-69
2023/12/01 09:59:17;;;;;;;6.72;6.03;;;;;;;4.32;69.21;98926.97;10414395;28;20061;-67
2023/12/01 10:04:20;;;;;;;6.50;5.80;;;;;;;4.44;68.66;98944.47;10412258;28;20629;-65
2023/12/01 10:09:28;;;;;;;7.22;6.05;;;;;;;4.46;68.28;98953.09;10412952;28;20127;-67
2023/12/01 10:14:30;;;;;;;6.28;5.57;;;;;;;4.38;68.09;98927.34;10418956;28;20155;-66
2023/12/01 10:19:33;;;;;;;6.05;5.45;;;;;;;4.51;67.87;98966.75;10411915;28;20493;-68
2023/12/01 10:24:35;;;;;;;7.05;5.32;;;;;;;4.47;66.85;98956.56;10407729;28;20514;-68
2023/12/01 10:29:38;;;;;;;5.75;4.38;;;;;;;4.36;66.85;98949.50;10395338;28;20139;-67
2023/12/01 10:34:49;;;;;;;4.93;4.53;;;;;;;4.46;66.91;98949.63;10411309;28;20128;-67
2023/12/01 10:39:54;;;;;;;5.38;4.80;;;;;;;4.45;67.22;98937.41;10400789;28;20425;-69
2023/12/01 10:44:59;;;;;;;5.03;4.35;;;;;;;4.56;66.37;98934.78;10406638;28;20086;-66
2023/12/01 10:50:02;;;;;;;4.40;4.00;;;;;;;4.64;66.53;98934.19;10413755;28;20041;-67
2023/12/01 10:55:04;;;;;;;5.20;4.70;;;;;;;4.52;65.93;98926.28;10408512;28;20044;-67
2023/12/01 11:00:19;;;;;;;7.35;5.35;;;;;;;4.43;66.15;98913.81;10403129;28;20489;-65
2023/12/01 11:05:21;;;;;;;5.55;5.05;;;;;;;4.45;66.07;98924.25;10407856;28;20635;-68
2023/12/01 11:10:31;;;;;;;6.45;5.35;;;;;;;4.54;65.88;98941.97;10409684;28;20057;-65
2023/12/01 11:15:37;;;;;;;6.05;5.45;;;;;;;4.49;65.52;98934.44;10413480;28;20072;-68
2023/12/01 11:20:45;;;;;;;6.18;5.57;;;;;;;4.53;66.35;98917.41;10411945;28;20197;-69
2023/12/01 11:25:50;;;;;;;7.13;6.43;;;;;;;4.50;66.24;98920.28;10413170;28;20191;-68
2023/12/01 11:31:15;;;;;;;9.63;8.10;;;;;;;4.55;65.90;98918.16;10409002;28;20049;-68
2023/12/01 11:36:25;;;;;;;9.07;7.22;;;;;;;4.53;65.81;98913.94;10406015;28;20195;-68
2023/12/01 11:41:28;;;;;;;9.52;8.05;;;;;;;4.31;66.55;98888.38;10406940;28;20064;-67
2023/12/01 11:46:31;;;;;;;8.07;7.22;;;;;;;4.55;66.74;98896.22;10409351;28;20053;-66
2023/12/01 11:51:34;;;;;;;9.20;8.30;;;;;;;4.63;66.39;98887.72;10402021;28;20060;-67
2023/12/01 11:56:36;;;;;;;9.98;9.07;;;;;;;4.53;66.49;98904.22;10415338;28;20052;-67
2023/12/01 12:01:37;;;;;;;9.63;8.63;;;;;;;4.41;65.85;98895.50;10410781;28;20055;-66
2023/12/01 12:06:41;;;;;;;10.00;8.60;;;;;;;4.52;66.49;98913.13;10409133;28;20040;-66
2023/12/01 12:11:48;;;;;;;9.50;8.50;;;;;;;4.22;66.27;98882.88;10414608;28;20055;-66
2023/12/01 12:16:51;;;;;;;9.75;8.73;;;;;;;4.47;66.49;98901.25;10413744;28;20560;-66
2023/12/01 12:21:54;;;;;;;9.52;8.52;;;;;;;4.41;66.64;98910.44;10418679;28;20048;-65
2023/12/01 12:26:58;;;;;;;9.93;8.68;;;;;;;4.33;66.75;98926.84;10399706;28;20057;-66
2023/12/01 12:32:01;;;;;;;8.90;8.00;;;;;;;4.34;67.13;98946.97;10417254;28;20063;-65
2023/12/01 12:37:03;;;;;;;10.43;8.13;;;;;;;4.40;66.07;98953.59;10413670;28;20130;-65
2023/12/01 12:42:06;;;;;;;9.43;7.95;;;;;;;4.35;65.83;98942.53;10422362;28;20104;-66
2023/12/01 12:47:12;;;;;;;8.73;7.82;;;;;;;4.06;67.42;98912.16;10422963;28;20046;-69
2023/12/01 12:52:13;;;;;;;8.20;7.38;;;;;;;4.26;67.56;98928.25;10417235;28;20113;-66
2023/12/01 12:57:15;;;;;;;8.77;7.88;;;;;;;4.38;67.12;98947.56;10412101;28;21148;-66
2023/12/01 13:02:24;;;;;;;8.13;7.32;;;;;;;4.37;66.31;98946.75;10411915;28;20539;-69
2023/12/01 13:07:26;;;;;;;9.98;8.55;;;;;;;4.29;65.70;98940.38;10413997;28;20471;-68
2023/12/01 13:12:28;;;;;;;10.48;8.40;;;;;;;3.94;66.46;98941.22;10415163;28;20053;-70
2023/12/01 13:17:30;;;;;;;10.68;9.57;;;;;;;4.06;67.23;98940.28;10400445;28;20057;-66
2023/12/01 13:22:34;;;;;;;10.50;8.07;;;;;;;4.25;66.74;98935.31;10411791;28;20053;-67
2023/12/01 13:27:36;;;;;;;8.77;7.60;;;;;;;4.33;66.36;98933.91;10410370;28;20051;-66
2023/12/01 13:32:38;;;;;;;13.18;8.57;;;;;;;4.16;66.66;98922.84;10408346;28;20138;-67
2023/12/01 13:37:39;;;;;;;9.80;8.00;;;;;;;3.97;67.42;98912.03;10410662;28;20091;-66
2023/12/01 13:42:41;;;;;;;10.93;9.00;;;;;;;4.19;67.61;98912.09;10399784;28;20083;-64
2023/12/01 13:47:42;;;;;;;10.60;8.40;;;;;;;4.23;67.41;98913.53;10402891;28;20369;-66
2023/12/01 13:52:49;;;;;;;10.93;8.50;;;;;;;4.11;67.98;98924.97;10412100;28;20056;-70
2023/12/01 13:57:50;;;;;;;12.70;8.50;;;;;;;4.12;66.05;98931.94;10412413;28;20204;-69
2023/12/01 14:02:53;;;;;;;9.50;8.10;;;;;;;4.19;66.39;98940.22;10411477;28;20536;-70
2023/12/01 14:07:54;;;;;;;9.73;7.90;;;;;;;4.17;66.52;98950.84;10417378;28;20056;-62
2023/12/01 14:12:58;;;;;;;9.63;8.05;;;;;;;4.13;66.49;98923.09;10417113;28;20052;-63
2023/12/01 14:17:59;;;;;;;10.05;8.30;;;;;;;4.04;65.98;98948.31;10408770;28;20085;-65
2023/12/01 14:23:01;;;;;;;11.63;9.35;;;;;;;4.01;66.77;98955.59;10407992;28;20131;-63
2023/12/01 14:28:04;;;;;;;11.77;9.15;;;;;;;3.45;67.90;98949.09;10409834;28;20052;-63
2023/12/01 14:33:06;;;;;;;10.50;8.93;;;;;;;3.74;67.39;98969.84;10406059;28;20041;-65
2023/12/01 14:38:08;;;;;;;12.18;9.43;;;;;;;3.88;67.35;98956.50;10409415;28;20061;-64
2023/12/01 14:43:10;;;;;;;9.77;8.02;;;;;;;3.96;66.98;98963.81;10412366;28;20183;-64
2023/12/01 14:48:13;;;;;;;11.45;8.10;;;;;;;3.97;66.58;98956.78;10413671;28;20608;-66
2023/12/01 14:53:18;;;;;;;12.57;8.40;;;;;;;3.64;66.01;98953.03;10410085;28;20049;-64
2023/12/01 14:58:19;;;;;;;12.00;10.13;;;;;;;3.66;67.08;98967.78;10409992;28;20138;-64
2023/12/01 15:03:23;;;;;;;12.98;9.25;;;;;;;3.73;66.80;98983.94;10407285;28;20728;-65
2023/12/01 15:08:25;;;;;;;11.43;8.82;;;;;;;3.34;68.19;98985.84;10412439;28;20056;-62
2023/12/01 15:13:30;;;;;;;10.60;8.18;;;;;;;3.45;68.38;98985.06;10409631;28;20071;-62
2023/12/01 15:18:33;;;;;;;8.48;7.40;;;;;;;3.63;67.16;98998.72;10408431;28;20063;-64
2023/12/01 15:23:38;;;;;;;11.63;8.90;;;;;;;3.54;67.47;99016.84;10403377;28;20127;-63
2023/12/01 15:28:40;;;;;;;11.13;8.82;;;;;;;3.43;67.69;99029.91;10404727;28;20132;-65
2023/12/01 15:33:42;;;;;;;10.25;7.65;;;;;;;3.35;68.04;99033.09;10411049;28;20099;-66
2023/12/01 15:38:44;;;;;;;10.32;7.93;;;;;;;3.28;67.74;99009.94;10415321;28;20041;-66
2023/12/01 15:43:46;;;;;;;11.93;8.75;;;;;;;3.31;67.56;98993.97;10408678;28;20128;-65
2023/12/01 15:48:48;;;;;;;12.15;8.57;;;;;;;3.43;67.94;99000.13;10411143;28;21226;-63
2023/12/01 15:53:50;;;;;;;12.52;8.93;;;;;;;3.12;67.83;98979.47;10422906;28;20468;-64
2023/12/01 15:58:55;;;;;;;13.10;9.27;;;;;;;3.30;67.74;99003.66;10417020;28;20732;-65
2023/12/01 16:03:58;;;;;;;11.40;8.30;;;;;;;3.22;68.49;98981.47;10421632;28;20195;-64
2023/12/01 16:08:59;;;;;;;11.13;8.13;;;;;;;3.22;68.50;98978.81;10393122;28;20523;-64
2023/12/01 16:14:01;;;;;;;11.40;8.65;;;;;;;3.31;68.15;98960.59;10419263;28;20057;-63
2023/12/01 16:19:03;;;;;;;12.93;8.55;;;;;;;3.38;68.12;98968.03;10412320;28;21098;-68
2023/12/01 16:24:05;;;;;;;10.63;8.55;;;;;;;3.02;68.56;98988.94;10415179;28;20076;-65
2023/12/01 16:29:10;;;;;;;12.95;10.02;;;;;;;3.12;68.26;98974.22;10422194;28;20048;-66
2023/12/01 16:34:14;;;;;;;11.43;9.13;;;;;;;3.23;68.16;98991.00;10421191;28;20529;-67
2023/12/01 16:39:16;;;;;;;10.38;9.13;;;;;;;3.24;68.93;98975.13;10421387;28;20052;-68
2023/12/01 16:44:17;;;;;;;12.48;9.73;;;;;;;3.32;67.46;99028.03;10408033;28;20041;-67
2023/12/01 16:49:19;;;;;;;12.48;9.63;;;;;;;3.09;68.65;99053.31;10412343;28;20047;-66
2023/12/01 16:54:21;;;;;;;11.00;8.50;;;;;;;3.33;68.45;99039.41;10414190;28;20143;-69
2023/12/01 16:59:23;;;;;;;12.20;8.38;;;;;;;3.38;67.55;99026.78;10412733;28;20064;-70
2023/12/01 17:04:25;;;;;;;10.75;9.13;;;;;;;3.35;67.16;99027.81;10415097;28;20060;-65
2023/12/01 17:09:27;;;;;;;11.60;9.52;;;;;;;3.40;67.59;99030.13;10395708;28;20603;-65
2023/12/01 17:14:29;;;;;;;10.43;7.80;;;;;;;3.31;67.62;99018.47;10410637;28;20060;-69
2023/12/01 17:19:39;;;;;;;9.98;8.23;;;;;;;3.38;66.88;99032.03;10417215;28;20049;-66
2023/12/01 17:24:41;;;;;;;10.52;8.43;;;;;;;3.36;67.12;99020.75;10413077;28;20722;-68
2023/12/01 17:29:44;;;;;;;9.60;7.45;;;;;;;3.33;66.38;99000.81;10411283;28;20057;-67
2023/12/01 17:34:46;;;;;;;11.10;7.47;;;;;;;3.31;66.24;98983.44;10406311;28;20053;-65
2023/12/01 17:39:48;;;;;;;11.18;8.00;;;;;;;3.20;66.62;98986.81;10409478;28;20056;-67
2023/12/01 17:44:51;;;;;;;9.15;7.18;;;;;;;3.40;66.17;99014.34;10406397;28;20511;-65
2023/12/01 17:49:52;;;;;;;9.15;7.55;;;;;;;3.25;65.71;99010.16;10416686;28;20149;-64
2023/12/01 17:54:54;;;;;;;9.30;7.07;;;;;;;3.25;65.95;99005.75;10412043;28;20485;-65
2023/12/01 17:59:55;;;;;;;8.00;6.30;;;;;;;3.23;65.72;99001.53;10422894;28;20231;-66
2023/12/01 18:04:57;;;;;;;8.73;6.28;;;;;;;3.28;65.49;99023.94;10413597;28;20056;-66
2023/12/01 18:09:59;;;;;;;8.18;6.50;;;;;;;3.18;65.86;99023.75;10410322;28;20045;-66
2023/12/01 18:15:01;;;;;;;8.55;6.05;;;;;;;3.17;65.37;99014.16;10409972;28;20144;-66
2023/12/01 18:20:03;;;;;;;8.20;7.00;;;;;;;3.17;66.15;99029.94;10404883;28;20056;-69
2023/12/01 18:25:05;;;;;;;8.68;7.20;;;;;;;3.06;66.18;99037.72;10380678;28;20059;-67
2023/12/01 18:30:07;;;;;;;8.00;7.10;;;;;;;3.00;65.86;99038.16;10415396;28;20052;-66
2023/12/01 18:35:10;;;;;;;9.75;7.45;;;;;;;3.21;65.13;99058.66;10415944;28;20053;-68
2023/12/01 18:40:13;;;;;;;8.98;7.68;;;;;;;3.14;65.73;99056.47;10393178;28;20049;-67
2023/12/01 18:45:15;;;;;;;11.18;8.20;;;;;;;2.96;65.73;99057.72;10406400;28;20045;-66
2023/12/01 18:50:16;;;;;;;13.07;9.30;;;;;;;2.96;65.82;99071.72;10405425;28;20048;-65
2023/12/01 18:55:18;;;;;;;9.57;7.20;;;;;;;2.95;65.61;99080.53;10388134;28;20067;-65
2023/12/01 19:00:25;;;;;;;9.82;7.72;;;;;;;3.05;65.80;99088.66;10401859;28;20092;-67
2023/12/01 19:05:28;;;;;;;10.35;7.65;;;;;;;2.94;65.84;99088.53;10404238;28;20057;-65
2023/12/01 19:10:29;;;;;;;10.75;8.25;;;;;;;2.99;66.19;99094.31;10401970;28;20049;-65
2023/12/01 19:15:31;;;;;;;9.80;7.50;;;;;;;2.90;66.10;99084.41;10404921;28;20057;-65
2023/12/01 19:20:40;;;;;;;8.75;7.05;;;;;;;2.92;66.15;99087.78;10408952;28;20039;-66
2023/12/01 19:25:41;;;;;;;12.13;8.45;;;;;;;2.85;66.11;99083.88;10396943;28;20058;-67
2023/12/01 19:30:45;;;;;;;9.88;7.97;;;;;;;2.80;65.95;99063.16;10404334;28;20055;-67
2023/12/01 19:35:46;;;;;;;9.93;8.55;;;;;;;2.57;66.16;99064.72;10391163;28;20056;-67
2023/12/01 19:40:47;;;;;;;9.90;8.15;;;;;;;2.94;66.75;99088.53;10411288;28;20146;-69
2023/12/01 19:45:57;;;;;;;9.82;8.20;;;;;;;2.79;66.92;99083.38;10407614;28;20126;-66
2023/12/01 19:51:00;;;;;;;10.27;8.35;;;;;;;2.41;67.54;99086.72;10409943;28;20064;-66
2023/12/01 19:56:05;;;;;;;9.15;7.40;;;;;;;2.44;68.39;99073.38;10404165;28;20519;-67
2023/12/01 20:01:08;;;;;;;10.48;7.88;;;;;;;2.60;67.65;99082.91;10409271;28;20561;-66
2023/12/01 20:06:10;;;;;;;11.77;9.00;;;;;;;2.77;66.63;99066.84;10411969;28;20060;-66
2023/12/01 20:11:12;;;;;;;10.55;8.43;;;;;;;2.66;66.25;99074.63;10402412;28;20049;-68
2023/12/01 20:16:13;;;;;;;13.52;10.32;;;;;;;2.76;67.03;99091.47;10443295;28;20484;-68
2023/12/01 20:21:15;;;;;;;24.55;14.55;;;;;;;2.54;66.74;99028.13;10424245;28;20045;-66
2023/12/01 20:26:16;;;;;;;11.75;8.18;;;;;;;2.77;66.34;99079.97;10406993;28;20044;-65
2023/12/01 20:31:19;;;;;;;9.85;8.38;;;;;;;2.52;66.77;99074.69;10399887;28;20045;-65
2023/12/01 20:36:21;;;;;;;9.27;7.63;;;;;;;2.49;67.57;99070.47;10383067;28;20045;-66
2023/12/01 20:41:26;;;;;;;9.90;8.23;;;;;;;2.74;66.71;99093.31;10413909;28;20048;-65
2023/12/01 20:46:28;;;;;;;10.20;8.18;;;;;;;2.57;66.64;99096.25;10410682;28;20049;-67
2023/12/01 20:51:30;;;;;;;9.85;7.82;;;;;;;2.65;65.81;99105.28;10415647;28;20059;-67
2023/12/01 20:56:33;;;;;;;10.52;8.40;;;;;;;2.76;66.25;99103.72;10407699;28;20075;-66
2023/12/01 21:01:37;;;;;;;9.85;7.45;;;;;;;2.68;65.18;99101.63;10420679;28;20060;-66
2023/12/01 21:06:39;;;;;;;12.35;9.23;;;;;;;2.51;65.82;99117.63;10415484;28;20059;-66
2023/12/01 21:11:40;;;;;;;9.48;7.95;;;;;;;2.59;65.84;99120.63;10419994;28;20437;-65
2023/12/01 21:16:42;;;;;;;10.50;8.07;;;;;;;2.66;65.65;99103.53;10410588;28;20044;-65
2023/12/01 21:21:44;;;;;;;10.90;7.93;;;;;;;2.54;65.51;99107.78;10403065;28;20053;-65
2023/12/01 21:26:48;;;;;;;10.73;7.97;;;;;;;2.64;65.97;99113.28;10402143;28;20044;-66
2023/12/01 21:31:51;;;;;;;8.87;7.60;;;;;;;2.67;65.61;99105.19;10409078;28;20053;-63
2023/12/01 21:36:52;;;;;;;12.32;8.98;;;;;;;2.39;65.98;99117.50;10410213;28;20507;-66
2023/12/01 21:41:55;;;;;;;8.95;7.47;;;;;;;2.48;66.11;99111.66;10409990;28;20060;-66
2023/12/01 21:46:57;;;;;;;11.07;8.45;;;;;;;2.46;65.36;99110.94;10412194;28;20803;-64
2023/12/01 21:51:58;;;;;;;11.38;9.23;;;;;;;2.46;65.24;99096.94;10409346;28;20131;-66
2023/12/01 21:57:00;;;;;;;9.95;8.65;;;;;;;2.47;64.89;99109.13;10411780;28;20053;-65
2023/12/01 22:02:02;;;;;;;11.48;9.45;;;;;;;2.35;65.79;99121.28;10397055;28;20234;-65
2023/12/01 22:07:04;;;;;;;12.15;10.35;;;;;;;2.38;65.43;99104.47;10418512;28;20051;-65
2023/12/01 22:12:07;;;;;;;9.98;8.55;;;;;;;2.40;64.62;99132.34;10406841;28;20049;-67
2023/12/01 22:17:08;;;;;;;12.85;11.05;;;;;;;2.32;65.75;99116.22;10407795;28;20048;-65
2023/12/01 22:22:10;;;;;;;14.65;11.90;;;;;;;2.20;66.27;99124.88;10410625;28;20049;-65
2023/12/01 22:27:21;;;;;;;11.65;9.23;;;;;;;2.19;65.61;99120.56;10410122;28;20041;-65
2023/12/01 22:32:23;;;;;;;10.65;9.30;;;;;;;2.07;66.34;99124.81;10403427;28;20094;-65
2023/12/01 22:37:25;;;;;;;9.95;8.50;;;;;;;2.21;66.06;99129.22;10403635;28;20079;-65
2023/12/01 22:42:26;;;;;;;11.93;8.60;;;;;;;2.02;64.97;99106.72;10407310;28;20771;-66
2023/12/01 22:47:28;;;;;;;11.02;8.85;;;;;;;2.01;65.56;99118.19;10406224;28;20187;-65
2023/12/01 22:52:29;;;;;;;8.88;7.28;;;;;;;2.18;65.36;99145.13;10397419;28;20056;-66
2023/12/01 22:57:32;;;;;;;9.35;7.65;;;;;;;2.35;68.40;99149.34;10416009;28;20052;-66
2023/12/01 23:02:34;;;;;;;9.57;8.32;;;;;;;2.05;65.76;99145.91;10405215;28;20784;-66
2023/12/01 23:07:37;;;;;;;8.60;7.25;;;;;;;2.04;66.36;99148.63;10412326;28;20060;-65
2023/12/01 23:12:40;;;;;;;7.13;6.43;;;;;;;1.89;65.51;99124.19;10409079;28;20053;-66
2023/12/01 23:17:41;;;;;;;8.25;7.10;;;;;;;1.94;65.36;99130.00;10408874;28;20064;-64
2023/12/01 23:22:58;;;;;;;8.35;6.30;;;;;;;1.83;65.18;99141.19;10401123;28;20057;-65
2023/12/01 23:28:01;;;;;;;7.10;6.28;;;;;;;1.40;66.31;99115.78;10411758;28;20049;-65
2023/12/01 23:33:02;;;;;;;8.52;6.15;;;;;;;1.52;65.52;99136.97;10411535;28;20052;-65
2023/12/01 23:38:04;;;;;;;8.18;6.90;;;;;;;1.55;65.96;99128.91;10409228;28;20054;-64